Main page
METAR-TAF:

METAR-TAF

Airports :

Parma Airport

Parma, Italy

latitude: 44-49-17N, longitude: 010-17-41E, elevation: 50 m

Current weather observation

The report was made 8 hours and 48 minutes ago, at 18:50 UTC
Wind 4 kt from the East
Temperature 26°C
Humidity 48%
Pressure 1014 hPa
Visibility 10 km or more
no clouds below 1500 m and no cumulonimbus

METAR: LIMP 161850Z 10004KT CAVOK 26/14 Q1014

Time: 05:38 (03:38 UTC)

Forecast

The report was made 10 hours and 38 minutes ago, at 17:00 UTC
Forecast valid from 16 at 18 UTC to 17 at 18 UTC
Wind 5 kt from variable directions
Visibility 10 km or more
no clouds below 1500 m and no cumulonimbus

TAF: LIMP 161700Z 1618/1718 VRB05KT CAVOK

Weather observations and forecasts of more than 4000 airports (METAR and TAF reports).

The available stations are represented by yellow and red dots on the map.

Hover mouse over dot to see the name of the station.

Then click to see weather observations and forecasts.

To change the map : click on the green buttons with a black cross to zoom in, on the green button with a dash to zoom out, or on the green arrows for adjacent maps.


METAR-TAF: